sensor_id;sensor_type;location;lat;lon;timestamp;temperature;humidity
19248;DHT22;9758;48.640;8.148;2023-06-22T00:00:46;26.10;44.50
19248;DHT22;9758;48.640;8.148;2023-06-22T00:03:13;26.10;45.20
19248;DHT22;9758;48.640;8.148;2023-06-22T00:05:39;26.20;44.60
19248;DHT22;9758;48.640;8.148;2023-06-22T00:08:06;26.20;44.60
19248;DHT22;9758;48.640;8.148;2023-06-22T00:10:34;26.20;44.50
19248;DHT22;9758;48.640;8.148;2023-06-22T00:13:01;26.20;44.60
19248;DHT22;9758;48.640;8.148;2023-06-22T00:15:28;26.30;44.60
19248;DHT22;9758;48.640;8.148;2023-06-22T00:17:55;26.30;44.60
19248;DHT22;9758;48.640;8.148;2023-06-22T00:20:22;26.30;44.70
19248;DHT22;9758;48.640;8.148;2023-06-22T00:22:53;26.30;44.50
19248;DHT22;9758;48.640;8.148;2023-06-22T00:25:20;26.20;44.50
19248;DHT22;9758;48.640;8.148;2023-06-22T00:27:48;26.20;44.50
19248;DHT22;9758;48.640;8.148;2023-06-22T00:30:15;26.20;44.50
19248;DHT22;9758;48.640;8.148;2023-06-22T00:32:42;26.20;44.50
19248;DHT22;9758;48.640;8.148;2023-06-22T00:35:10;26.10;44.40
19248;DHT22;9758;48.640;8.148;2023-06-22T00:37:37;26.10;44.50
19248;DHT22;9758;48.640;8.148;2023-06-22T00:40:07;26.10;44.50
19248;DHT22;9758;48.640;8.148;2023-06-22T00:42:34;26.00;44.50
19248;DHT22;9758;48.640;8.148;2023-06-22T00:45:03;26.00;44.60
19248;DHT22;9758;48.640;8.148;2023-06-22T00:47:30;25.90;44.60
19248;DHT22;9758;48.640;8.148;2023-06-22T00:49:57;25.90;44.70
19248;DHT22;9758;48.640;8.148;2023-06-22T00:52:26;25.80;44.60
19248;DHT22;9758;48.640;8.148;2023-06-22T00:54:56;25.80;44.70
19248;DHT22;9758;48.640;8.148;2023-06-22T00:57:24;25.70;44.90
19248;DHT22;9758;48.640;8.148;2023-06-22T00:59:54;25.70;44.90
19248;DHT22;9758;48.640;8.148;2023-06-22T01:02:22;25.60;45.30
19248;DHT22;9758;48.640;8.148;2023-06-22T01:04:48;25.60;45.90
19248;DHT22;9758;48.640;8.148;2023-06-22T01:07:21;25.50;45.10
19248;DHT22;9758;48.640;8.148;2023-06-22T01:09:56;25.50;45.10
19248;DHT22;9758;48.640;8.148;2023-06-22T01:12:25;25.40;45.30
19248;DHT22;9758;48.640;8.148;2023-06-22T01:14:57;25.40;45.20
19248;DHT22;9758;48.640;8.148;2023-06-22T01:17:29;25.30;45.40
19248;DHT22;9758;48.640;8.148;2023-06-22T01:19:58;25.30;45.20
19248;DHT22;9758;48.640;8.148;2023-06-22T01:22:30;25.30;45.20
19248;DHT22;9758;48.640;8.148;2023-06-22T01:25:09;25.30;45.30
19248;DHT22;9758;48.640;8.148;2023-06-22T01:27:44;25.30;45.40
19248;DHT22;9758;48.640;8.148;2023-06-22T01:30:16;25.30;45.30
19248;DHT22;9758;48.640;8.148;2023-06-22T01:32:44;25.30;45.30
19248;DHT22;9758;48.640;8.148;2023-06-22T01:35:12;25.20;45.30
19248;DHT22;9758;48.640;8.148;2023-06-22T01:37:39;25.20;45.30
19248;DHT22;9758;48.640;8.148;2023-06-22T01:40:08;25.20;45.30
19248;DHT22;9758;48.640;8.148;2023-06-22T01:42:35;25.20;45.30
19248;DHT22;9758;48.640;8.148;2023-06-22T01:45:05;25.20;45.30
19248;DHT22;9758;48.640;8.148;2023-06-22T01:47:34;25.20;45.40
19248;DHT22;9758;48.640;8.148;2023-06-22T01:50:01;25.10;45.30
19248;DHT22;9758;48.640;8.148;2023-06-22T01:52:28;25.10;45.40
19248;DHT22;9758;48.640;8.148;2023-06-22T01:54:54;25.10;45.40
19248;DHT22;9758;48.640;8.148;2023-06-22T01:57:23;25.10;45.50
19248;DHT22;9758;48.640;8.148;2023-06-22T01:59:57;25.00;45.50
19248;DHT22;9758;48.640;8.148;2023-06-22T02:02:28;24.90;45.50
19248;DHT22;9758;48.640;8.148;2023-06-22T02:05:05;24.90;45.60
19248;DHT22;9758;48.640;8.148;2023-06-22T02:07:35;24.80;45.50
19248;DHT22;9758;48.640;8.148;2023-06-22T02:10:06;24.80;45.60
19248;DHT22;9758;48.640;8.148;2023-06-22T02:12:35;24.80;45.70
19248;DHT22;9758;48.640;8.148;2023-06-22T02:15:03;24.80;45.70
19248;DHT22;9758;48.640;8.148;2023-06-22T02:17:30;24.70;45.80
19248;DHT22;9758;48.640;8.148;2023-06-22T02:20:01;24.70;45.80
19248;DHT22;9758;48.640;8.148;2023-06-22T02:22:29;24.60;45.80
19248;DHT22;9758;48.640;8.148;2023-06-22T02:24:56;24.70;45.90
19248;DHT22;9758;48.640;8.148;2023-06-22T02:27:24;24.60;45.90
19248;DHT22;9758;48.640;8.148;2023-06-22T02:29:50;24.60;45.90
19248;DHT22;9758;48.640;8.148;2023-06-22T02:32:17;24.60;45.90
19248;DHT22;9758;48.640;8.148;2023-06-22T02:34:44;24.70;46.00
19248;DHT22;9758;48.640;8.148;2023-06-22T02:37:14;24.70;46.00
19248;DHT22;9758;48.640;8.148;2023-06-22T02:39:41;24.70;46.00
19248;DHT22;9758;48.640;8.148;2023-06-22T02:42:08;24.70;46.00
19248;DHT22;9758;48.640;8.148;2023-06-22T02:44:36;24.60;46.00
19248;DHT22;9758;48.640;8.148;2023-06-22T02:47:03;24.70;46.00
19248;DHT22;9758;48.640;8.148;2023-06-22T02:49:30;24.70;46.00
19248;DHT22;9758;48.640;8.148;2023-06-22T02:52:10;24.70;46.10
19248;DHT22;9758;48.640;8.148;2023-06-22T02:54:38;24.60;46.20
19248;DHT22;9758;48.640;8.148;2023-06-22T02:57:05;24.60;46.10
19248;DHT22;9758;48.640;8.148;2023-06-22T02:59:32;24.70;46.20
19248;DHT22;9758;48.640;8.148;2023-06-22T03:01:58;24.70;46.20
19248;DHT22;9758;48.640;8.148;2023-06-22T03:04:26;24.70;46.50
19248;DHT22;9758;48.640;8.148;2023-06-22T03:06:52;24.70;46.20
19248;DHT22;9758;48.640;8.148;2023-06-22T03:09:20;24.70;46.20
19248;DHT22;9758;48.640;8.148;2023-06-22T03:11:48;24.70;46.20
19248;DHT22;9758;48.640;8.148;2023-06-22T03:14:15;24.80;46.20
19248;DHT22;9758;48.640;8.148;2023-06-22T03:16:42;24.80;46.20
19248;DHT22;9758;48.640;8.148;2023-06-22T03:19:08;24.80;46.20
19248;DHT22;9758;48.640;8.148;2023-06-22T03:21:37;24.80;46.10
19248;DHT22;9758;48.640;8.148;2023-06-22T03:24:04;24.80;46.20
19248;DHT22;9758;48.640;8.148;2023-06-22T03:26:31;24.80;46.20
19248;DHT22;9758;48.640;8.148;2023-06-22T03:28:59;24.90;46.20
19248;DHT22;9758;48.640;8.148;2023-06-22T03:31:26;24.80;46.20
19248;DHT22;9758;48.640;8.148;2023-06-22T03:33:53;24.90;46.20
19248;DHT22;9758;48.640;8.148;2023-06-22T03:36:20;24.90;46.20
19248;DHT22;9758;48.640;8.148;2023-06-22T03:38:48;24.90;46.20
19248;DHT22;9758;48.640;8.148;2023-06-22T03:41:15;24.90;46.20
19248;DHT22;9758;48.640;8.148;2023-06-22T03:43:42;24.90;46.20
19248;DHT22;9758;48.640;8.148;2023-06-22T03:46:10;24.90;46.10
19248;DHT22;9758;48.640;8.148;2023-06-22T03:48:37;25.00;46.20
19248;DHT22;9758;48.640;8.148;2023-06-22T03:51:04;25.00;46.30
19248;DHT22;9758;48.640;8.148;2023-06-22T03:53:31;25.00;46.20
19248;DHT22;9758;48.640;8.148;2023-06-22T03:55:58;25.00;46.20
19248;DHT22;9758;48.640;8.148;2023-06-22T03:58:25;25.10;46.20
19248;DHT22;9758;48.640;8.148;2023-06-22T04:00:52;25.00;46.20
19248;DHT22;9758;48.640;8.148;2023-06-22T04:03:20;25.10;46.20
19248;DHT22;9758;48.640;8.148;2023-06-22T04:05:47;25.10;46.20
19248;DHT22;9758;48.640;8.148;2023-06-22T04:08:15;25.20;46.20
19248;DHT22;9758;48.640;8.148;2023-06-22T04:10:42;25.20;46.20
19248;DHT22;9758;48.640;8.148;2023-06-22T04:13:09;25.20;46.10
19248;DHT22;9758;48.640;8.148;2023-06-22T04:15:36;25.20;46.10
19248;DHT22;9758;48.640;8.148;2023-06-22T04:18:03;25.30;46.30
19248;DHT22;9758;48.640;8.148;2023-06-22T04:20:31;25.30;46.10
19248;DHT22;9758;48.640;8.148;2023-06-22T04:23:19;25.30;46.10
19248;DHT22;9758;48.640;8.148;2023-06-22T04:25:46;25.30;46.30
19248;DHT22;9758;48.640;8.148;2023-06-22T04:28:13;25.30;46.00
19248;DHT22;9758;48.640;8.148;2023-06-22T04:30:40;25.40;46.10
19248;DHT22;9758;48.640;8.148;2023-06-22T04:33:12;25.40;46.10
19248;DHT22;9758;48.640;8.148;2023-06-22T04:35:40;25.40;46.00
19248;DHT22;9758;48.640;8.148;2023-06-22T04:38:08;25.40;46.00
19248;DHT22;9758;48.640;8.148;2023-06-22T04:40:34;25.50;46.10
19248;DHT22;9758;48.640;8.148;2023-06-22T04:43:01;25.50;46.00
19248;DHT22;9758;48.640;8.148;2023-06-22T04:45:29;25.50;46.10
19248;DHT22;9758;48.640;8.148;2023-06-22T04:47:56;25.50;46.00
19248;DHT22;9758;48.640;8.148;2023-06-22T04:50:23;25.60;46.00
19248;DHT22;9758;48.640;8.148;2023-06-22T04:52:51;25.60;46.00
19248;DHT22;9758;48.640;8.148;2023-06-22T04:55:19;25.60;45.90
19248;DHT22;9758;48.640;8.148;2023-06-22T04:57:46;25.70;46.00
19248;DHT22;9758;48.640;8.148;2023-06-22T05:00:15;25.70;45.90
19248;DHT22;9758;48.640;8.148;2023-06-22T05:02:43;25.70;45.90
19248;DHT22;9758;48.640;8.148;2023-06-22T05:05:11;25.80;45.90
19248;DHT22;9758;48.640;8.148;2023-06-22T05:07:41;25.80;45.90
19248;DHT22;9758;48.640;8.148;2023-06-22T05:10:11;25.80;45.90
19248;DHT22;9758;48.640;8.148;2023-06-22T05:12:39;25.80;45.90
19248;DHT22;9758;48.640;8.148;2023-06-22T05:15:06;25.90;45.90
19248;DHT22;9758;48.640;8.148;2023-06-22T05:17:34;25.90;45.90
19248;DHT22;9758;48.640;8.148;2023-06-22T05:20:01;25.90;45.90
19248;DHT22;9758;48.640;8.148;2023-06-22T05:22:28;26.00;45.90
19248;DHT22;9758;48.640;8.148;2023-06-22T05:24:55;26.00;45.80
19248;DHT22;9758;48.640;8.148;2023-06-22T05:27:23;26.00;45.80
19248;DHT22;9758;48.640;8.148;2023-06-22T05:29:50;26.10;45.80
19248;DHT22;9758;48.640;8.148;2023-06-22T05:32:17;26.10;45.80
19248;DHT22;9758;48.640;8.148;2023-06-22T05:34:44;26.30;45.80
19248;DHT22;9758;48.640;8.148;2023-06-22T05:37:10;26.30;45.80
19248;DHT22;9758;48.640;8.148;2023-06-22T05:39:38;26.30;45.70
19248;DHT22;9758;48.640;8.148;2023-06-22T05:42:05;26.30;45.70
19248;DHT22;9758;48.640;8.148;2023-06-22T05:44:33;26.30;45.90
19248;DHT22;9758;48.640;8.148;2023-06-22T05:47:00;26.30;45.80
19248;DHT22;9758;48.640;8.148;2023-06-22T05:49:28;26.20;46.00
19248;DHT22;9758;48.640;8.148;2023-06-22T05:51:58;26.20;46.00
19248;DHT22;9758;48.640;8.148;2023-06-22T05:54:25;26.20;46.10
19248;DHT22;9758;48.640;8.148;2023-06-22T05:56:51;26.20;46.20
19248;DHT22;9758;48.640;8.148;2023-06-22T05:59:19;26.20;46.10
19248;DHT22;9758;48.640;8.148;2023-06-22T06:01:47;26.30;46.40
19248;DHT22;9758;48.640;8.148;2023-06-22T06:04:16;26.30;46.20
19248;DHT22;9758;48.640;8.148;2023-06-22T06:06:43;26.30;46.50
19248;DHT22;9758;48.640;8.148;2023-06-22T06:09:10;26.20;46.30
19248;DHT22;9758;48.640;8.148;2023-06-22T06:11:37;26.20;46.40
19248;DHT22;9758;48.640;8.148;2023-06-22T06:14:04;26.20;46.50
19248;DHT22;9758;48.640;8.148;2023-06-22T06:16:31;26.20;46.50
19248;DHT22;9758;48.640;8.148;2023-06-22T06:18:59;26.20;46.60
19248;DHT22;9758;48.640;8.148;2023-06-22T06:21:26;26.20;46.90
19248;DHT22;9758;48.640;8.148;2023-06-22T06:23:53;26.20;47.10
19248;DHT22;9758;48.640;8.148;2023-06-22T06:26:19;26.10;46.70
19248;DHT22;9758;48.640;8.148;2023-06-22T06:28:55;26.10;47.40
19248;DHT22;9758;48.640;8.148;2023-06-22T06:31:22;26.10;46.80
19248;DHT22;9758;48.640;8.148;2023-06-22T06:33:49;26.20;46.90
19248;DHT22;9758;48.640;8.148;2023-06-22T06:36:18;26.30;46.90
19248;DHT22;9758;48.640;8.148;2023-06-22T06:41:56;26.40;47.00
19248;DHT22;9758;48.640;8.148;2023-06-22T06:44:22;26.50;46.90
19248;DHT22;9758;48.640;8.148;2023-06-22T06:46:49;26.50;46.90
19248;DHT22;9758;48.640;8.148;2023-06-22T06:49:16;26.50;46.80
19248;DHT22;9758;48.640;8.148;2023-06-22T06:51:44;26.50;46.80
19248;DHT22;9758;48.640;8.148;2023-06-22T06:54:11;26.60;47.10
19248;DHT22;9758;48.640;8.148;2023-06-22T06:56:38;26.60;46.90
19248;DHT22;9758;48.640;8.148;2023-06-22T06:59:04;26.70;47.00
19248;DHT22;9758;48.640;8.148;2023-06-22T07:01:31;26.70;47.00
19248;DHT22;9758;48.640;8.148;2023-06-22T07:04:00;26.80;47.00
19248;DHT22;9758;48.640;8.148;2023-06-22T07:06:27;26.90;46.90
19248;DHT22;9758;48.640;8.148;2023-06-22T07:08:58;27.10;46.80
19248;DHT22;9758;48.640;8.148;2023-06-22T07:11:27;27.20;46.80
19248;DHT22;9758;48.640;8.148;2023-06-22T07:13:54;27.30;46.60
19248;DHT22;9758;48.640;8.148;2023-06-22T07:16:20;27.40;46.60
19248;DHT22;9758;48.640;8.148;2023-06-22T07:18:48;27.50;46.60
19248;DHT22;9758;48.640;8.148;2023-06-22T07:21:15;27.60;46.50
19248;DHT22;9758;48.640;8.148;2023-06-22T07:23:44;27.70;46.40
19248;DHT22;9758;48.640;8.148;2023-06-22T07:26:12;27.80;46.30
19248;DHT22;9758;48.640;8.148;2023-06-22T07:28:39;27.80;46.30
19248;DHT22;9758;48.640;8.148;2023-06-22T07:31:06;27.80;46.20
19248;DHT22;9758;48.640;8.148;2023-06-22T07:33:33;27.70;46.20
19248;DHT22;9758;48.640;8.148;2023-06-22T07:36:00;27.70;46.40
19248;DHT22;9758;48.640;8.148;2023-06-22T07:38:29;27.60;46.70
19248;DHT22;9758;48.640;8.148;2023-06-22T07:40:56;27.60;46.50
19248;DHT22;9758;48.640;8.148;2023-06-22T07:43:24;27.50;46.70
19248;DHT22;9758;48.640;8.148;2023-06-22T07:45:51;27.50;46.60
19248;DHT22;9758;48.640;8.148;2023-06-22T07:48:20;27.50;46.60
19248;DHT22;9758;48.640;8.148;2023-06-22T07:50:47;27.50;46.60
19248;DHT22;9758;48.640;8.148;2023-06-22T07:53:14;27.50;46.50
19248;DHT22;9758;48.640;8.148;2023-06-22T07:55:41;27.40;46.60
19248;DHT22;9758;48.640;8.148;2023-06-22T07:58:08;27.30;46.70
19248;DHT22;9758;48.640;8.148;2023-06-22T08:00:36;27.10;46.70
19248;DHT22;9758;48.640;8.148;2023-06-22T08:03:23;27.00;46.70
19248;DHT22;9758;48.640;8.148;2023-06-22T08:05:50;26.90;47.00
19248;DHT22;9758;48.640;8.148;2023-06-22T08:08:17;26.90;47.00
19248;DHT22;9758;48.640;8.148;2023-06-22T08:10:44;26.90;47.00
19248;DHT22;9758;48.640;8.148;2023-06-22T08:13:10;26.90;47.00
19248;DHT22;9758;48.640;8.148;2023-06-22T08:15:39;26.90;47.10
19248;DHT22;9758;48.640;8.148;2023-06-22T08:18:05;27.00;47.30
19248;DHT22;9758;48.640;8.148;2023-06-22T08:20:32;27.00;48.20
19248;DHT22;9758;48.640;8.148;2023-06-22T08:22:59;27.00;47.50
19248;DHT22;9758;48.640;8.148;2023-06-22T08:25:31;27.00;47.80
19248;DHT22;9758;48.640;8.148;2023-06-22T08:27:59;27.10;47.70
19248;DHT22;9758;48.640;8.148;2023-06-22T08:30:27;27.30;47.70
19248;DHT22;9758;48.640;8.148;2023-06-22T08:32:55;27.50;47.70
19248;DHT22;9758;48.640;8.148;2023-06-22T08:35:22;27.70;47.50
19248;DHT22;9758;48.640;8.148;2023-06-22T08:37:49;27.90;47.70
19248;DHT22;9758;48.640;8.148;2023-06-22T08:40:19;28.10;47.90
19248;DHT22;9758;48.640;8.148;2023-06-22T08:42:47;28.20;47.10
19248;DHT22;9758;48.640;8.148;2023-06-22T08:45:14;28.30;47.00
19248;DHT22;9758;48.640;8.148;2023-06-22T08:47:41;28.40;46.80
19248;DHT22;9758;48.640;8.148;2023-06-22T08:50:11;28.50;46.80
19248;DHT22;9758;48.640;8.148;2023-06-22T08:52:39;28.60;46.90
19248;DHT22;9758;48.640;8.148;2023-06-22T08:55:07;28.60;46.70
19248;DHT22;9758;48.640;8.148;2023-06-22T08:57:35;28.70;46.90
19248;DHT22;9758;48.640;8.148;2023-06-22T09:00:03;28.70;46.70
19248;DHT22;9758;48.640;8.148;2023-06-22T09:02:32;28.70;46.80
19248;DHT22;9758;48.640;8.148;2023-06-22T09:04:58;28.70;47.00
19248;DHT22;9758;48.640;8.148;2023-06-22T09:07:26;28.60;46.90
19248;DHT22;9758;48.640;8.148;2023-06-22T09:09:53;28.70;47.00
19248;DHT22;9758;48.640;8.148;2023-06-22T09:12:20;28.70;47.00
19248;DHT22;9758;48.640;8.148;2023-06-22T09:14:51;28.90;47.00
19248;DHT22;9758;48.640;8.148;2023-06-22T09:17:17;29.00;46.80
19248;DHT22;9758;48.640;8.148;2023-06-22T09:19:44;29.10;46.80
19248;DHT22;9758;48.640;8.148;2023-06-22T09:22:11;29.30;46.80
19248;DHT22;9758;48.640;8.148;2023-06-22T09:24:40;29.50;46.70
19248;DHT22;9758;48.640;8.148;2023-06-22T09:27:06;29.60;46.50
19248;DHT22;9758;48.640;8.148;2023-06-22T09:29:33;29.70;46.30
19248;DHT22;9758;48.640;8.148;2023-06-22T09:32:00;29.70;46.30
19248;DHT22;9758;48.640;8.148;2023-06-22T09:34:27;29.60;46.30
19248;DHT22;9758;48.640;8.148;2023-06-22T09:36:54;29.50;46.30
19248;DHT22;9758;48.640;8.148;2023-06-22T09:39:22;29.50;46.30
19248;DHT22;9758;48.640;8.148;2023-06-22T09:41:50;29.50;46.40
19248;DHT22;9758;48.640;8.148;2023-06-22T09:44:18;29.50;46.40
19248;DHT22;9758;48.640;8.148;2023-06-22T09:46:44;29.60;46.50
19248;DHT22;9758;48.640;8.148;2023-06-22T09:49:11;29.60;46.40
19248;DHT22;9758;48.640;8.148;2023-06-22T09:51:38;29.60;46.50
19248;DHT22;9758;48.640;8.148;2023-06-22T09:54:05;29.60;46.50
19248;DHT22;9758;48.640;8.148;2023-06-22T09:56:31;29.60;46.60
19248;DHT22;9758;48.640;8.148;2023-06-22T09:59:00;29.70;46.60
19248;DHT22;9758;48.640;8.148;2023-06-22T10:01:26;29.90;46.60
19248;DHT22;9758;48.640;8.148;2023-06-22T10:03:53;29.90;46.40
19248;DHT22;9758;48.640;8.148;2023-06-22T10:06:21;30.00;46.40
19248;DHT22;9758;48.640;8.148;2023-06-22T10:08:50;30.10;46.40
19248;DHT22;9758;48.640;8.148;2023-06-22T10:11:17;30.20;46.20
19248;DHT22;9758;48.640;8.148;2023-06-22T10:13:43;30.30;46.20
19248;DHT22;9758;48.640;8.148;2023-06-22T10:16:12;30.30;46.40
19248;DHT22;9758;48.640;8.148;2023-06-22T10:18:38;30.40;46.10
19248;DHT22;9758;48.640;8.148;2023-06-22T10:21:05;30.50;46.10
19248;DHT22;9758;48.640;8.148;2023-06-22T10:23:32;30.50;46.00
19248;DHT22;9758;48.640;8.148;2023-06-22T10:25:59;30.50;46.00
19248;DHT22;9758;48.640;8.148;2023-06-22T10:28:25;30.60;46.20
19248;DHT22;9758;48.640;8.148;2023-06-22T10:30:55;30.60;46.10
19248;DHT22;9758;48.640;8.148;2023-06-22T10:33:24;30.70;46.10
19248;DHT22;9758;48.640;8.148;2023-06-22T10:35:51;30.70;45.90
19248;DHT22;9758;48.640;8.148;2023-06-22T10:38:18;30.80;45.90
19248;DHT22;9758;48.640;8.148;2023-06-22T10:40:45;30.90;46.00
19248;DHT22;9758;48.640;8.148;2023-06-22T10:43:12;31.00;45.90
19248;DHT22;9758;48.640;8.148;2023-06-22T10:45:39;31.10;45.80
19248;DHT22;9758;48.640;8.148;2023-06-22T10:48:06;31.20;45.80
19248;DHT22;9758;48.640;8.148;2023-06-22T10:50:34;31.30;45.70
19248;DHT22;9758;48.640;8.148;2023-06-22T10:53:00;31.30;45.60
19248;DHT22;9758;48.640;8.148;2023-06-22T10:55:27;31.40;45.50
19248;DHT22;9758;48.640;8.148;2023-06-22T10:57:54;31.30;45.40
19248;DHT22;9758;48.640;8.148;2023-06-22T11:00:21;31.30;45.60
19248;DHT22;9758;48.640;8.148;2023-06-22T11:02:48;31.30;45.70
19248;DHT22;9758;48.640;8.148;2023-06-22T11:05:14;31.40;45.60
19248;DHT22;9758;48.640;8.148;2023-06-22T11:07:43;31.50;45.60
19248;DHT22;9758;48.640;8.148;2023-06-22T11:10:10;31.50;45.50
19248;DHT22;9758;48.640;8.148;2023-06-22T11:12:37;31.60;45.50
19248;DHT22;9758;48.640;8.148;2023-06-22T11:15:05;31.60;45.40
19248;DHT22;9758;48.640;8.148;2023-06-22T11:17:32;31.60;45.40
19248;DHT22;9758;48.640;8.148;2023-06-22T11:19:58;31.70;45.40
19248;DHT22;9758;48.640;8.148;2023-06-22T11:22:25;31.70;45.40
19248;DHT22;9758;48.640;8.148;2023-06-22T11:24:53;31.70;45.40
19248;DHT22;9758;48.640;8.148;2023-06-22T11:27:20;31.70;45.50
19248;DHT22;9758;48.640;8.148;2023-06-22T11:29:47;31.60;45.40
19248;DHT22;9758;48.640;8.148;2023-06-22T11:32:15;31.50;45.40
19248;DHT22;9758;48.640;8.148;2023-06-22T11:34:42;31.50;45.50
19248;DHT22;9758;48.640;8.148;2023-06-22T11:37:08;31.50;45.60
19248;DHT22;9758;48.640;8.148;2023-06-22T11:39:43;31.50;45.60
19248;DHT22;9758;48.640;8.148;2023-06-22T11:42:12;31.60;45.60
19248;DHT22;9758;48.640;8.148;2023-06-22T11:44:39;31.60;45.40
19248;DHT22;9758;48.640;8.148;2023-06-22T11:47:06;31.50;45.30
19248;DHT22;9758;48.640;8.148;2023-06-22T11:49:41;31.50;45.40
19248;DHT22;9758;48.640;8.148;2023-06-22T11:52:08;31.30;45.50
19248;DHT22;9758;48.640;8.148;2023-06-22T11:54:35;31.30;45.60
19248;DHT22;9758;48.640;8.148;2023-06-22T11:57:02;31.30;45.60
19248;DHT22;9758;48.640;8.148;2023-06-22T11:59:30;31.40;45.70
19248;DHT22;9758;48.640;8.148;2023-06-22T12:01:57;31.40;45.60
19248;DHT22;9758;48.640;8.148;2023-06-22T12:04:24;31.50;45.60
19248;DHT22;9758;48.640;8.148;2023-06-22T12:06:51;31.50;45.50
19248;DHT22;9758;48.640;8.148;2023-06-22T12:09:18;31.50;45.30
19248;DHT22;9758;48.640;8.148;2023-06-22T12:11:44;31.50;45.30
19248;DHT22;9758;48.640;8.148;2023-06-22T12:14:11;31.40;45.30
19248;DHT22;9758;48.640;8.148;2023-06-22T12:16:39;31.30;45.40
19248;DHT22;9758;48.640;8.148;2023-06-22T12:19:06;31.20;45.50
19248;DHT22;9758;48.640;8.148;2023-06-22T12:21:33;31.20;45.60
19248;DHT22;9758;48.640;8.148;2023-06-22T12:23:59;31.10;45.60
19248;DHT22;9758;48.640;8.148;2023-06-22T12:26:43;31.00;45.70
19248;DHT22;9758;48.640;8.148;2023-06-22T12:29:10;31.00;46.00
19248;DHT22;9758;48.640;8.148;2023-06-22T12:31:37;31.00;46.10
19248;DHT22;9758;48.640;8.148;2023-06-22T12:34:11;31.10;46.20
19248;DHT22;9758;48.640;8.148;2023-06-22T12:36:38;31.20;46.20
19248;DHT22;9758;48.640;8.148;2023-06-22T12:39:05;31.30;46.10
19248;DHT22;9758;48.640;8.148;2023-06-22T12:41:32;31.40;46.10
19248;DHT22;9758;48.640;8.148;2023-06-22T12:43:58;31.50;46.00
19248;DHT22;9758;48.640;8.148;2023-06-22T12:46:25;31.60;45.90
19248;DHT22;9758;48.640;8.148;2023-06-22T12:48:52;31.70;45.80
19248;DHT22;9758;48.640;8.148;2023-06-22T12:51:23;31.80;45.80
19248;DHT22;9758;48.640;8.148;2023-06-22T12:53:57;31.90;45.80
19248;DHT22;9758;48.640;8.148;2023-06-22T12:56:23;32.00;45.70
19248;DHT22;9758;48.640;8.148;2023-06-22T12:58:50;32.10;45.60
19248;DHT22;9758;48.640;8.148;2023-06-22T13:01:17;32.20;45.50
19248;DHT22;9758;48.640;8.148;2023-06-22T13:03:43;32.10;45.30
19248;DHT22;9758;48.640;8.148;2023-06-22T13:06:10;32.00;45.40
19248;DHT22;9758;48.640;8.148;2023-06-22T13:08:38;31.90;45.50
19248;DHT22;9758;48.640;8.148;2023-06-22T13:11:05;31.90;45.80
19248;DHT22;9758;48.640;8.148;2023-06-22T13:13:32;31.90;45.90
19248;DHT22;9758;48.640;8.148;2023-06-22T13:15:59;32.00;45.90
19248;DHT22;9758;48.640;8.148;2023-06-22T13:18:26;32.00;45.80
19248;DHT22;9758;48.640;8.148;2023-06-22T13:20:53;32.10;45.70
19248;DHT22;9758;48.640;8.148;2023-06-22T13:23:20;32.20;45.70
19248;DHT22;9758;48.640;8.148;2023-06-22T13:26:16;32.30;45.70
19248;DHT22;9758;48.640;8.148;2023-06-22T13:28:43;32.40;45.70
19248;DHT22;9758;48.640;8.148;2023-06-22T13:31:09;32.50;45.60
19248;DHT22;9758;48.640;8.148;2023-06-22T13:33:38;32.50;45.30
19248;DHT22;9758;48.640;8.148;2023-06-22T13:36:06;32.60;45.30
19248;DHT22;9758;48.640;8.148;2023-06-22T13:38:35;32.40;45.30
19248;DHT22;9758;48.640;8.148;2023-06-22T13:41:03;32.40;45.50
19248;DHT22;9758;48.640;8.148;2023-06-22T13:43:32;32.40;45.60
19248;DHT22;9758;48.640;8.148;2023-06-22T13:45:58;32.50;45.60
19248;DHT22;9758;48.640;8.148;2023-06-22T13:48:25;32.50;45.60
19248;DHT22;9758;48.640;8.148;2023-06-22T13:50:54;32.50;45.50
19248;DHT22;9758;48.640;8.148;2023-06-22T13:53:20;32.60;45.40
19248;DHT22;9758;48.640;8.148;2023-06-22T13:55:47;32.50;45.30
19248;DHT22;9758;48.640;8.148;2023-06-22T13:58:14;32.50;45.20
19248;DHT22;9758;48.640;8.148;2023-06-22T14:00:42;32.50;45.40
19248;DHT22;9758;48.640;8.148;2023-06-22T14:03:10;32.40;45.30
19248;DHT22;9758;48.640;8.148;2023-06-22T14:05:37;32.40;45.40
19248;DHT22;9758;48.640;8.148;2023-06-22T14:08:04;32.50;45.50
19248;DHT22;9758;48.640;8.148;2023-06-22T14:10:31;32.50;45.30
19248;DHT22;9758;48.640;8.148;2023-06-22T14:12:57;32.40;45.20
19248;DHT22;9758;48.640;8.148;2023-06-22T14:15:25;32.50;45.50
19248;DHT22;9758;48.640;8.148;2023-06-22T14:17:53;32.60;45.50
19248;DHT22;9758;48.640;8.148;2023-06-22T14:20:20;32.60;45.20
19248;DHT22;9758;48.640;8.148;2023-06-22T14:22:46;32.70;45.20
19248;DHT22;9758;48.640;8.148;2023-06-22T14:25:13;32.80;45.20
19248;DHT22;9758;48.640;8.148;2023-06-22T14:27:40;32.90;45.10
19248;DHT22;9758;48.640;8.148;2023-06-22T14:30:07;33.00;45.00
19248;DHT22;9758;48.640;8.148;2023-06-22T14:32:34;33.10;45.00
19248;DHT22;9758;48.640;8.148;2023-06-22T14:35:03;33.20;44.80
19248;DHT22;9758;48.640;8.148;2023-06-22T14:37:29;33.30;44.70
19248;DHT22;9758;48.640;8.148;2023-06-22T14:39:56;33.40;44.70
19248;DHT22;9758;48.640;8.148;2023-06-22T14:42:23;33.50;44.50
19248;DHT22;9758;48.640;8.148;2023-06-22T14:44:52;33.60;44.50
19248;DHT22;9758;48.640;8.148;2023-06-22T14:47:19;33.70;44.50
19248;DHT22;9758;48.640;8.148;2023-06-22T14:49:47;33.80;44.30
19248;DHT22;9758;48.640;8.148;2023-06-22T14:52:15;33.90;43.90
19248;DHT22;9758;48.640;8.148;2023-06-22T14:54:42;33.90;43.90
19248;DHT22;9758;48.640;8.148;2023-06-22T14:57:09;33.90;43.80
19248;DHT22;9758;48.640;8.148;2023-06-22T14:59:36;33.90;43.80
19248;DHT22;9758;48.640;8.148;2023-06-22T15:02:02;33.90;43.70
19248;DHT22;9758;48.640;8.148;2023-06-22T15:04:29;33.90;43.70
19248;DHT22;9758;48.640;8.148;2023-06-22T15:07:00;33.90;43.60
19248;DHT22;9758;48.640;8.148;2023-06-22T15:09:28;34.00;43.50
19248;DHT22;9758;48.640;8.148;2023-06-22T15:11:55;33.90;43.30
19248;DHT22;9758;48.640;8.148;2023-06-22T15:14:23;33.90;43.30
19248;DHT22;9758;48.640;8.148;2023-06-22T15:16:50;33.90;43.90
19248;DHT22;9758;48.640;8.148;2023-06-22T15:19:16;34.00;43.40
19248;DHT22;9758;48.640;8.148;2023-06-22T15:21:43;34.00;43.20
19248;DHT22;9758;48.640;8.148;2023-06-22T15:24:11;34.00;43.20
19248;DHT22;9758;48.640;8.148;2023-06-22T15:26:46;34.10;43.20
19248;DHT22;9758;48.640;8.148;2023-06-22T15:29:13;34.10;43.20
19248;DHT22;9758;48.640;8.148;2023-06-22T15:31:40;34.20;42.90
19248;DHT22;9758;48.640;8.148;2023-06-22T15:34:07;34.20;42.90
19248;DHT22;9758;48.640;8.148;2023-06-22T15:36:34;34.40;42.90
19248;DHT22;9758;48.640;8.148;2023-06-22T15:39:01;34.50;42.90
19248;DHT22;9758;48.640;8.148;2023-06-22T15:41:28;34.70;42.90
19248;DHT22;9758;48.640;8.148;2023-06-22T15:43:56;35.00;42.70
19248;DHT22;9758;48.640;8.148;2023-06-22T15:46:22;35.50;42.40
19248;DHT22;9758;48.640;8.148;2023-06-22T15:48:49;36.00;42.10
19248;DHT22;9758;48.640;8.148;2023-06-22T15:51:16;36.50;42.00